Time;durP1;ratioP1;P1;durP2;ratioP2;P2;SDS_P1;SDS_P2;PMS_P1;PMS_P2;Temp;Humidity;BMP_temperature;BMP_pressure;BME280_temperature;BME280_humidity;BME280_pressure;Samples;Min_cycle;Max_cycle;Signal;HPM_P1;HPM_P2
2022/05/04 00:00:59;;;;;;;2.85;2.40;;;;;;;5.48;70.70;94895.25;5147973;27;20031;-71
2022/05/04 00:03:24;;;;;;;2.40;1.90;;;;;;;5.43;70.66;94902.44;5147896;27;20510;-70
2022/05/04 00:05:50;;;;;;;2.72;2.30;;;;;;;5.39;70.65;94894.06;5147947;27;20031;-71
2022/05/04 00:08:15;;;;;;;2.42;2.00;;;;;;;5.20;71.24;94898.69;5147900;27;20063;-71
2022/05/04 00:10:41;;;;;;;2.75;2.22;;;;;;;5.11;71.47;94902.66;5149029;27;20491;-71
2022/05/04 00:13:06;;;;;;;2.58;2.13;;;;;;;5.15;71.26;94898.97;5147673;27;20034;-71
2022/05/04 00:15:31;;;;;;;3.22;2.30;;;;;;;5.05;71.63;94892.72;5147582;27;20524;-71
2022/05/04 00:17:57;;;;;;;2.67;2.25;;;;;;;5.00;71.70;94887.84;5149176;27;20027;-71
2022/05/04 00:20:22;;;;;;;2.97;2.50;;;;;;;4.91;72.62;94880.66;5147559;27;20034;-71
2022/05/04 00:22:48;;;;;;;3.78;2.50;;;;;;;4.89;72.38;94873.03;5149040;27;20031;-71
2022/05/04 00:25:13;;;;;;;2.95;2.45;;;;;;;4.97;72.73;94869.19;5130288;27;20064;-71
2022/05/04 00:27:39;;;;;;;2.72;2.40;;;;;;;4.99;72.01;94882.78;5148422;27;20166;-71
2022/05/04 00:30:05;;;;;;;3.55;2.10;;;;;;;4.89;72.47;94865.31;5133084;27;20030;-71
2022/05/04 00:32:30;;;;;;;2.63;2.40;;;;;;;4.79;72.89;94871.94;5133530;27;20057;-71
2022/05/04 00:34:56;;;;;;;3.38;2.60;;;;;;;4.83;72.89;94873.41;5099270;27;20496;-71
2022/05/04 00:37:21;;;;;;;3.30;2.67;;;;;;;4.80;73.02;94880.47;5116071;27;20039;-70
2022/05/04 00:39:47;;;;;;;2.80;2.38;;;;;;;4.91;72.75;94881.50;5134642;27;20019;-71
2022/05/04 00:42:19;;;;;;;2.97;2.45;;;;;;;4.90;72.82;94890.16;5099375;27;20027;-71
2022/05/04 00:44:47;;;;;;;3.17;2.65;;;;;;;4.97;72.72;94900.06;5116209;27;20084;-71
2022/05/04 00:47:12;;;;;;;2.85;2.55;;;;;;;4.99;72.87;94893.09;5116420;27;20067;-71
2022/05/04 00:49:39;;;;;;;3.70;3.08;;;;;;;5.01;72.89;94902.34;5134448;27;20027;-71
2022/05/04 00:52:05;;;;;;;3.33;2.88;;;;;;;4.99;72.89;94895.66;5133186;27;20039;-71
2022/05/04 00:54:31;;;;;;;2.80;2.40;;;;;;;5.04;72.73;94896.19;5134292;27;20453;-71
2022/05/04 00:56:57;;;;;;;5.88;3.60;;;;;;;5.00;72.53;94893.00;5132998;27;20055;-71
2022/05/04 00:59:22;;;;;;;3.72;3.10;;;;;;;5.03;72.58;94897.13;5133035;27;20419;-71
2022/05/04 01:01:48;;;;;;;3.20;2.60;;;;;;;4.99;72.83;94911.13;5116018;27;20393;-71
2022/05/04 01:04:13;;;;;;;4.47;2.90;;;;;;;5.00;72.39;94913.59;5132976;27;20518;-71
2022/05/04 01:06:38;;;;;;;2.53;2.20;;;;;;;4.92;72.49;94908.88;5115697;27;20404;-71
2022/05/04 01:09:04;;;;;;;3.05;2.30;;;;;;;4.97;72.56;94920.66;5115696;27;20023;-71
2022/05/04 01:11:29;;;;;;;2.95;2.20;;;;;;;4.85;72.70;94925.63;5132744;27;20032;-71
2022/05/04 01:14:08;;;;;;;2.75;2.33;;;;;;;4.86;72.53;94924.69;5115681;27;20472;-71
2022/05/04 01:16:34;;;;;;;2.47;2.20;;;;;;;4.80;72.69;94930.22;5115918;27;20114;-71
2022/05/04 01:19:00;;;;;;;2.60;2.10;;;;;;;4.81;72.54;94933.59;5115582;27;20030;-72
2022/05/04 01:21:25;;;;;;;3.10;2.10;;;;;;;4.66;72.31;94917.31;5115391;27;20412;-71
2022/05/04 01:23:52;;;;;;;2.97;2.10;;;;;;;4.74;71.99;94919.44;5132613;27;20028;-71
2022/05/04 01:26:17;;;;;;;2.90;2.30;;;;;;;4.70;72.03;94918.78;5132523;27;20506;-71
2022/05/04 01:28:44;;;;;;;3.15;2.42;;;;;;;4.62;72.30;94918.41;5115325;27;20051;-71
2022/05/04 01:31:09;;;;;;;2.95;2.30;;;;;;;4.45;73.09;94894.47;5133861;27;20484;-71
2022/05/04 01:33:35;;;;;;;3.17;2.50;;;;;;;4.48;73.40;94914.91;5115056;27;20080;-71
2022/05/04 01:36:00;;;;;;;2.97;2.25;;;;;;;4.54;73.25;94918.00;5132283;27;20138;-71
2022/05/04 01:38:25;;;;;;;3.95;2.30;;;;;;;4.46;73.42;94916.72;5115131;27;20476;-71
2022/05/04 01:40:51;;;;;;;2.88;2.25;;;;;;;4.34;73.72;94916.56;5114156;27;20031;-71
2022/05/04 01:43:16;;;;;;;2.70;2.40;;;;;;;4.37;73.55;94919.78;5133806;27;20042;-71
2022/05/04 01:45:42;;;;;;;2.55;2.35;;;;;;;4.35;73.87;94908.78;5132151;27;20408;-71
2022/05/04 01:48:07;;;;;;;2.72;2.22;;;;;;;4.34;73.65;94912.25;5132241;27;20027;-71
2022/05/04 01:50:33;;;;;;;2.60;2.30;;;;;;;4.37;73.48;94922.38;5114861;27;20051;-71
2022/05/04 01:52:58;;;;;;;3.42;2.25;;;;;;;4.28;73.79;94911.78;5114835;27;20544;-71
2022/05/04 01:55:24;;;;;;;2.72;2.30;;;;;;;4.29;73.60;94919.44;5133180;27;20027;-71
2022/05/04 01:57:49;;;;;;;4.68;2.35;;;;;;;4.32;73.47;94910.69;5114677;27;20084;-71
2022/05/04 02:00:15;;;;;;;2.65;2.17;;;;;;;4.30;73.69;94902.25;5131907;27;20019;-71
2022/05/04 02:02:40;;;;;;;2.50;2.10;;;;;;;4.30;73.28;94904.81;5097658;27;20431;-71
2022/05/04 02:05:06;;;;;;;2.80;2.30;;;;;;;4.17;73.35;94899.53;5114624;27;20420;-71
2022/05/04 02:07:33;;;;;;;2.53;2.17;;;;;;;4.27;73.76;94910.97;5131481;27;20027;-71
2022/05/04 02:09:59;;;;;;;2.55;2.20;;;;;;;4.30;73.28;94905.63;5114590;27;20034;-71
2022/05/04 02:12:26;;;;;;;2.30;2.10;;;;;;;4.16;73.50;94897.88;5131588;27;20031;-71
2022/05/04 02:14:52;;;;;;;2.67;2.30;;;;;;;4.19;73.79;94902.84;5114605;27;20166;-71
2022/05/04 02:17:17;;;;;;;2.70;2.30;;;;;;;4.16;73.48;94915.88;5131492;27;20035;-71
2022/05/04 02:19:43;;;;;;;2.97;2.53;;;;;;;4.19;73.70;94915.72;5132649;27;20476;-71
2022/05/04 02:22:08;;;;;;;2.85;2.40;;;;;;;4.21;73.50;94914.72;5132749;27;20056;-72
2022/05/04 02:24:33;;;;;;;2.50;2.10;;;;;;;4.30;73.19;94913.34;5114240;27;20023;-71
2022/05/04 02:26:59;;;;;;;2.70;2.38;;;;;;;4.36;72.73;94914.75;5131150;27;20047;-71
2022/05/04 02:29:24;;;;;;;2.53;2.08;;;;;;;4.32;73.23;94903.81;5132450;27;20031;-71
2022/05/04 02:31:50;;;;;;;2.90;2.30;;;;;;;4.30;72.98;94910.78;5114175;27;20085;-71
2022/05/04 02:34:15;;;;;;;2.70;2.30;;;;;;;4.23;73.09;94894.03;5132439;27;20027;-72
2022/05/04 02:39:25;;;;;;;3.03;2.30;;;;;;;4.18;73.33;94901.16;5132321;27;20088;-71
2022/05/04 02:41:52;;;;;;;2.83;2.17;;;;;;;4.19;73.40;94895.97;5131067;27;20454;-72
2022/05/04 02:44:17;;;;;;;2.67;2.35;;;;;;;4.05;73.85;94895.91;5132210;27;20019;-72
2022/05/04 02:46:43;;;;;;;3.20;2.70;;;;;;;4.14;73.71;94902.28;5130919;27;20035;-71
2022/05/04 02:49:08;;;;;;;6.28;4.65;;;;;;;4.17;73.56;94886.66;5130970;27;20041;-71
2022/05/04 02:51:34;;;;;;;6.07;4.90;;;;;;;4.27;73.12;94916.09;5131890;27;20039;-71
2022/05/04 02:53:59;;;;;;;4.68;4.18;;;;;;;4.33;73.19;94915.75;5113785;27;20031;-71
2022/05/04 02:56:25;;;;;;;7.80;3.83;;;;;;;4.26;73.35;94911.84;5113620;27;20037;-71
2022/05/04 02:58:53;;;;;;;4.28;3.85;;;;;;;4.31;73.46;94924.47;5130727;27;20484;-72
2022/05/04 03:04:06;;;;;;;2.95;2.60;;;;;;;4.31;72.82;94933.00;5131009;27;20060;-71
2022/05/04 03:06:33;;;;;;;3.08;2.78;;;;;;;4.27;72.30;94939.25;5130846;27;20544;-71
2022/05/04 03:08:58;;;;;;;3.63;3.08;;;;;;;4.22;72.42;94944.63;5113694;27;20023;-71
2022/05/04 03:14:08;;;;;;;2.85;2.40;;;;;;;4.08;72.75;94942.00;5130880;27;20473;-71
2022/05/04 03:16:34;;;;;;;2.75;2.15;;;;;;;4.08;72.64;94954.88;5130425;28;20035;-71
2022/05/04 03:19:00;;;;;;;2.92;2.38;;;;;;;3.98;73.31;94949.41;5130596;28;20031;-71
2022/05/04 03:21:26;;;;;;;2.75;2.33;;;;;;;4.08;72.92;94959.19;5131697;27;20084;-71
2022/05/04 03:23:51;;;;;;;2.85;2.47;;;;;;;3.97;73.55;94958.03;5113424;28;20031;-71
2022/05/04 03:26:18;;;;;;;3.20;2.58;;;;;;;3.93;73.59;94950.56;5130490;28;20034;-71
2022/05/04 03:28:44;;;;;;;3.35;2.58;;;;;;;3.95;74.50;94952.13;5131684;27;20108;-71
2022/05/04 03:31:09;;;;;;;3.00;2.67;;;;;;;3.91;74.76;94944.69;5130417;28;20492;-71
2022/05/04 03:33:35;;;;;;;3.40;2.78;;;;;;;3.80;74.86;94945.25;5130450;28;20084;-71
2022/05/04 03:36:00;;;;;;;3.70;2.88;;;;;;;3.78;75.26;94940.19;5131655;27;20408;-71
2022/05/04 03:38:26;;;;;;;3.20;2.90;;;;;;;3.83;75.30;94957.13;5132006;27;20088;-71
2022/05/04 03:40:51;;;;;;;3.47;2.50;;;;;;;3.89;74.72;94960.19;5131699;27;20373;-71
2022/05/04 03:43:16;;;;;;;3.42;3.05;;;;;;;3.91;74.95;94955.78;5132015;27;20027;-71
2022/05/04 03:45:42;;;;;;;3.90;3.15;;;;;;;3.84;74.94;94946.75;5113276;28;20031;-71
2022/05/04 03:48:08;;;;;;;3.60;3.15;;;;;;;3.89;75.33;94949.91;5131975;27;20039;-71
2022/05/04 03:50:33;;;;;;;3.08;2.67;;;;;;;4.00;74.79;94963.00;5130247;28;20019;-71
2022/05/04 03:52:58;;;;;;;3.30;2.70;;;;;;;4.01;74.51;94953.53;5131822;27;20038;-71
2022/05/04 03:55:24;;;;;;;3.40;2.63;;;;;;;3.98;74.53;94946.00;5113151;28;20027;-71
2022/05/04 03:57:50;;;;;;;4.35;3.00;;;;;;;4.01;74.81;94951.81;5113212;28;20035;-71
2022/05/04 04:00:16;;;;;;;5.78;3.53;;;;;;;4.06;74.63;94953.28;5130210;28;20035;-71
2022/05/04 04:02:41;;;;;;;4.35;2.78;;;;;;;4.13;74.47;94954.63;5131571;27;20382;-71
2022/05/04 04:05:07;;;;;;;5.28;3.40;;;;;;;4.30;74.25;94959.66;5133448;27;20031;-71
2022/05/04 04:07:33;;;;;;;3.13;2.50;;;;;;;4.42;73.78;94961.53;5117053;27;20027;-71
2022/05/04 04:09:58;;;;;;;5.88;4.25;;;;;;;4.73;72.93;94989.84;5116868;27;20476;-71
2022/05/04 04:12:24;;;;;;;7.40;5.75;;;;;;;4.98;71.93;95002.97;5116807;27;20035;-71
2022/05/04 04:14:49;;;;;;;6.55;5.47;;;;;;;5.06;72.14;95005.91;5133928;27;20027;-72
2022/05/04 04:17:15;;;;;;;8.68;6.10;;;;;;;5.30;72.19;95003.66;5133703;27;20099;-71
2022/05/04 04:19:40;;;;;;;6.60;5.80;;;;;;;5.59;71.78;95001.09;5133802;27;20031;-71
2022/05/04 04:22:06;;;;;;;7.15;5.68;;;;;;;5.82;70.78;94994.53;5134922;27;20054;-73
2022/05/04 04:24:31;;;;;;;5.07;4.55;;;;;;;6.20;69.37;94993.94;5133826;27;20030;-71
2022/05/04 04:26:56;;;;;;;4.45;3.92;;;;;;;6.49;68.18;94992.09;5116306;27;20050;-72
2022/05/04 04:29:22;;;;;;;3.85;3.20;;;;;;;6.82;66.93;94994.25;5134872;27;20023;-72
2022/05/04 04:31:48;;;;;;;4.65;3.30;;;;;;;7.34;65.53;94982.25;5134865;27;20031;-72
2022/05/04 04:34:13;;;;;;;3.58;2.88;;;;;;;7.53;63.72;94984.41;5133540;27;20057;-72
2022/05/04 04:36:39;;;;;;;6.38;4.05;;;;;;;7.89;62.14;94972.47;5116146;27;20379;-72
2022/05/04 04:39:04;;;;;;;3.15;2.40;;;;;;;8.18;60.96;94971.25;5133477;27;20023;-72
2022/05/04 04:41:31;;;;;;;3.72;2.47;;;;;;;8.54;58.91;94966.16;5133347;27;20126;-72
2022/05/04 04:43:56;;;;;;;2.92;2.42;;;;;;;8.71;58.32;94963.16;5116423;27;20553;-72
2022/05/04 04:46:22;;;;;;;6.38;3.15;;;;;;;9.11;57.02;94950.69;5133298;27;20019;-72
2022/05/04 04:48:47;;;;;;;2.78;2.10;;;;;;;9.26;56.74;94945.31;5115988;27;20462;-72
2022/05/04 04:51:13;;;;;;;2.83;2.13;;;;;;;9.71;54.72;94951.34;5133442;27;20461;-72
2022/05/04 04:53:38;;;;;;;2.85;2.22;;;;;;;10.00;54.77;94964.66;5116021;27;20119;-72
2022/05/04 04:56:04;;;;;;;4.85;2.33;;;;;;;10.44;53.21;94972.50;5134337;27;20467;-72
2022/05/04 04:58:30;;;;;;;3.95;3.53;;;;;;;10.57;53.99;94978.38;5133113;27;20110;-72
2022/05/04 05:00:56;;;;;;;5.30;4.70;;;;;;;10.23;55.32;94978.41;5133109;27;20475;-72
2022/05/04 05:03:22;;;;;;;5.03;4.35;;;;;;;9.89;56.78;94984.56;5133129;27;20030;-72
2022/05/04 05:05:47;;;;;;;5.80;5.15;;;;;;;9.60;57.34;94992.84;5132953;27;20027;-72
2022/05/04 05:08:12;;;;;;;7.18;5.20;;;;;;;9.16;59.30;94994.41;5134612;27;20625;-72
2022/05/04 05:10:38;;;;;;;6.78;5.25;;;;;;;8.82;60.20;95011.59;5132860;27;20110;-72
2022/05/04 05:13:03;;;;;;;6.43;5.15;;;;;;;8.38;61.30;95000.88;5132984;27;20059;-72
2022/05/04 05:18:14;;;;;;;6.60;6.00;;;;;;;7.36;64.94;95014.00;5132964;27;20111;-72
2022/05/04 05:20:39;;;;;;;7.97;7.18;;;;;;;7.06;66.37;95022.84;5115420;27;20500;-71
2022/05/04 05:23:05;;;;;;;8.30;7.45;;;;;;;6.75;67.29;95024.00;5132766;27;20023;-72
2022/05/04 05:25:32;;;;;;;7.88;6.85;;;;;;;6.76;67.82;95010.16;5133757;27;20027;-71
2022/05/04 05:27:58;;;;;;;7.72;6.95;;;;;;;6.92;68.79;95013.41;5132462;27;20058;-72
2022/05/04 05:30:23;;;;;;;11.13;9.27;;;;;;;6.99;68.67;95000.09;5132368;27;20027;-72
2022/05/04 05:32:49;;;;;;;15.20;13.60;;;;;;;7.13;67.99;95010.31;5115318;27;20032;-72
2022/05/04 05:35:14;;;;;;;13.55;10.25;;;;;;;7.26;67.94;95000.00;5132348;27;20031;-72
2022/05/04 05:37:39;;;;;;;10.60;9.60;;;;;;;7.53;67.12;95000.75;5131950;27;20047;-72
2022/05/04 05:40:05;;;;;;;9.05;8.15;;;;;;;7.73;66.65;95007.16;5132306;27;20051;-72
2022/05/04 05:42:32;;;;;;;14.45;12.95;;;;;;;7.81;66.11;94998.88;5133404;27;20027;-72
2022/05/04 05:44:57;;;;;;;12.25;7.90;;;;;;;7.94;66.03;94994.50;5098195;27;20031;-71
2022/05/04 05:47:23;;;;;;;8.43;7.53;;;;;;;8.21;65.10;94996.06;5133507;27;20050;-72
2022/05/04 05:49:48;;;;;;;8.10;7.15;;;;;;;8.34;63.99;94999.47;5132078;27;20389;-72
2022/05/04 05:52:14;;;;;;;7.22;6.53;;;;;;;8.26;63.96;94997.41;5114916;27;20031;-72
2022/05/04 05:54:39;;;;;;;11.93;8.40;;;;;;;8.45;63.87;95002.13;5133145;27;20461;-72
2022/05/04 05:57:05;;;;;;;7.10;6.40;;;;;;;8.62;63.65;95002.69;5133151;27;20038;-72
2022/05/04 05:59:30;;;;;;;8.13;6.68;;;;;;;8.79;63.87;94993.69;5133082;27;20030;-73
2022/05/04 06:01:56;;;;;;;8.73;6.25;;;;;;;8.99;63.33;94993.06;5133109;27;20031;-72
2022/05/04 06:04:21;;;;;;;8.50;6.28;;;;;;;9.16;62.30;94986.63;5131787;27;20412;-72
2022/05/04 06:06:47;;;;;;;9.40;5.72;;;;;;;9.22;61.94;94980.16;5131688;27;20480;-72
2022/05/04 06:09:12;;;;;;;7.45;5.05;;;;;;;9.34;62.55;94984.44;5131713;27;20427;-72
2022/05/04 06:11:38;;;;;;;6.43;5.57;;;;;;;9.57;61.51;94980.09;5131398;27;20027;-72
2022/05/04 06:14:03;;;;;;;5.10;4.25;;;;;;;9.79;61.33;94976.69;5131628;27;20023;-72
2022/05/04 06:16:28;;;;;;;3.80;2.38;;;;;;;9.81;60.10;94978.22;5132491;27;20035;-72
2022/05/04 06:18:54;;;;;;;2.60;2.25;;;;;;;9.71;59.73;94963.47;5131509;27;20030;-72
2022/05/04 06:21:19;;;;;;;2.60;2.30;;;;;;;9.87;59.66;94979.53;5131429;27;20027;-72
2022/05/04 06:23:45;;;;;;;3.55;2.88;;;;;;;10.05;59.21;94979.84;5132519;27;20026;-72
2022/05/04 06:26:10;;;;;;;4.43;1.80;;;;;;;10.25;58.24;94980.88;5113671;27;20039;-73
2022/05/04 06:28:35;;;;;;;2.20;1.63;;;;;;;10.48;57.12;94979.09;5097108;27;20043;-72
2022/05/04 06:36:29;;;;;;;4.57;3.17;;;;;;;10.93;56.78;94995.34;5132212;27;20041;-73
2022/05/04 06:38:54;;;;;;;4.18;3.15;;;;;;;11.03;57.00;94992.00;5131171;27;20024;-72
2022/05/04 06:41:20;;;;;;;7.32;5.18;;;;;;;11.17;56.98;94999.47;5114149;27;20027;-73
2022/05/04 06:43:45;;;;;;;6.18;5.57;;;;;;;11.39;56.79;94995.94;5132474;27;20027;-72
2022/05/04 06:46:11;;;;;;;7.40;5.28;;;;;;;11.45;57.62;95000.66;5130984;27;20031;-72
2022/05/04 06:48:37;;;;;;;8.50;6.55;;;;;;;11.56;57.32;95003.19;5130939;27;20126;-72
2022/05/04 06:51:02;;;;;;;8.85;5.20;;;;;;;11.62;55.59;95007.88;5130973;27;20515;-72
2022/05/04 06:53:27;;;;;;;5.28;4.78;;;;;;;11.49;55.76;94999.44;5113933;27;20027;-72
2022/05/04 06:55:53;;;;;;;7.15;4.80;;;;;;;11.46;55.65;95002.28;5130931;27;20027;-72
2022/05/04 06:58:18;;;;;;;6.30;5.13;;;;;;;11.26;55.63;95005.72;5132377;27;20035;-72
2022/05/04 07:00:44;;;;;;;6.45;4.50;;;;;;;11.18;56.06;95012.38;5113709;27;20030;-72
2022/05/04 07:03:09;;;;;;;6.63;4.22;;;;;;;11.05;57.88;95003.91;5132345;27;20034;-72
2022/05/04 07:05:35;;;;;;;5.90;4.53;;;;;;;11.06;58.05;95008.19;5113666;27;20080;-72
2022/05/04 07:08:00;;;;;;;5.90;4.07;;;;;;;11.11;57.78;95002.59;5113648;28;20526;-72
2022/05/04 07:10:25;;;;;;;6.72;5.10;;;;;;;11.27;58.44;95004.78;5113495;27;20431;-73
2022/05/04 07:12:51;;;;;;;6.97;6.28;;;;;;;11.51;57.94;95002.75;5113735;28;20027;-73
2022/05/04 07:15:17;;;;;;;7.82;4.88;;;;;;;11.68;58.17;94998.72;5131889;27;20435;-73
2022/05/04 07:17:43;;;;;;;5.18;4.68;;;;;;;11.92;57.21;94995.84;5130103;27;20078;-73
2022/05/04 07:20:09;;;;;;;8.23;4.53;;;;;;;12.06;55.79;94989.44;5113445;28;20465;-73
2022/05/04 07:22:35;;;;;;;6.20;4.65;;;;;;;12.19;55.64;94984.84;5113516;28;20035;-73
2022/05/04 07:25:00;;;;;;;5.10;4.60;;;;;;;12.35;55.93;94986.94;5113480;28;20503;-72
2022/05/04 07:27:26;;;;;;;7.05;4.15;;;;;;;12.52;55.35;94988.91;5131582;27;20501;-73
2022/05/04 07:29:51;;;;;;;7.68;4.22;;;;;;;12.78;56.06;94990.97;5131779;27;20076;-73
2022/05/04 07:32:16;;;;;;;6.32;5.68;;;;;;;12.97;54.66;94984.94;5131871;27;20084;-72
2022/05/04 07:34:42;;;;;;;4.28;3.63;;;;;;;12.96;50.78;94988.53;5113414;28;20060;-72
2022/05/04 07:37:07;;;;;;;4.63;3.78;;;;;;;13.13;50.73;94995.66;5130332;28;20382;-73
2022/05/04 07:42:26;;;;;;;6.72;4.72;;;;;;;13.37;49.95;94991.81;5134646;27;20103;-73
2022/05/04 07:45:03;;;;;;;8.32;5.10;;;;;;;13.51;50.18;94987.94;5118361;27;20023;-73
2022/05/04 07:47:32;;;;;;;6.80;4.72;;;;;;;13.65;49.55;94992.75;5134509;27;20062;-72
2022/05/04 07:49:58;;;;;;;7.80;4.80;;;;;;;13.63;49.76;94979.00;5117419;27;20019;-73
2022/05/04 07:52:23;;;;;;;6.35;5.68;;;;;;;13.77;49.35;94988.97;5134353;27;20107;-72
2022/05/04 07:54:49;;;;;;;9.48;5.60;;;;;;;13.66;49.00;94976.09;5117170;27;20435;-73
2022/05/04 07:57:14;;;;;;;8.35;5.10;;;;;;;13.74;50.42;94984.06;5134216;27;20035;-72
2022/05/04 07:59:40;;;;;;;7.43;5.55;;;;;;;13.68;49.74;94983.78;5134305;27;20023;-73
2022/05/04 08:04:50;;;;;;;9.07;6.60;;;;;;;13.74;49.42;94973.59;5135391;27;20034;-73
2022/05/04 08:07:16;;;;;;;8.82;6.70;;;;;;;13.85;50.06;94983.88;5134112;27;20410;-73
2022/05/04 08:09:42;;;;;;;8.90;7.45;;;;;;;13.94;49.83;94979.56;5135201;27;20031;-73
2022/05/04 08:12:08;;;;;;;8.32;6.57;;;;;;;14.02;49.29;94978.88;5117037;27;20046;-73
2022/05/04 08:14:34;;;;;;;8.55;6.65;;;;;;;13.97;49.53;94973.25;5133988;27;20051;-73
2022/05/04 08:17:00;;;;;;;10.00;7.63;;;;;;;13.89;48.82;94968.75;5116610;27;20035;-73
2022/05/04 08:19:25;;;;;;;12.77;7.68;;;;;;;13.86;49.68;94969.84;5116727;27;20408;-73
2022/05/04 08:21:51;;;;;;;8.57;7.40;;;;;;;14.04;50.88;94975.16;5116676;27;20079;-73
2022/05/04 08:24:17;;;;;;;10.93;8.65;;;;;;;14.08;49.35;94967.84;5133750;27;20034;-73
2022/05/04 08:26:43;;;;;;;10.43;8.10;;;;;;;14.10;49.88;94968.53;5099259;27;20070;-73
2022/05/04 08:29:08;;;;;;;9.38;8.20;;;;;;;14.08;50.25;94968.66;5116416;27;20034;-73
2022/05/04 08:31:34;;;;;;;10.13;8.18;;;;;;;14.25;50.53;94967.06;5116471;27;20042;-73
2022/05/04 08:33:59;;;;;;;10.57;7.95;;;;;;;14.37;49.56;94965.06;5134843;27;20042;-73
2022/05/04 08:36:24;;;;;;;9.45;8.38;;;;;;;14.57;49.20;94967.59;5133430;27;20019;-73
2022/05/04 08:38:50;;;;;;;13.63;8.73;;;;;;;14.74;48.07;94972.84;5133420;27;20019;-73
2022/05/04 08:41:15;;;;;;;13.18;9.25;;;;;;;14.74;46.26;94966.81;5133434;27;20038;-73
2022/05/04 08:43:41;;;;;;;10.25;8.50;;;;;;;14.79;47.12;94958.50;5134802;27;20023;-73
2022/05/04 08:46:06;;;;;;;10.65;8.07;;;;;;;14.96;46.82;94966.34;5133315;27;20484;-73
2022/05/04 08:48:32;;;;;;;9.43;8.38;;;;;;;15.11;47.11;94964.03;5116134;27;20527;-72
2022/05/04 08:51:03;;;;;;;10.93;7.90;;;;;;;15.07;46.03;94961.84;5115737;27;20031;-73
2022/05/04 08:53:28;;;;;;;14.38;8.23;;;;;;;15.17;46.57;94955.56;5116535;27;20389;-73
2022/05/04 08:55:54;;;;;;;9.52;8.18;;;;;;;15.36;46.13;94959.78;5116044;27;20088;-73
2022/05/04 08:58:20;;;;;;;10.50;7.30;;;;;;;15.52;47.72;94951.25;5133151;27;20412;-73
2022/05/04 09:00:45;;;;;;;9.45;7.38;;;;;;;15.68;45.82;94955.78;5133064;27;20038;-73
2022/05/04 09:03:11;;;;;;;10.45;6.97;;;;;;;15.74;43.37;94959.56;5132836;27;20035;-73
2022/05/04 09:05:41;;;;;;;8.77;6.38;;;;;;;15.81;42.97;94953.56;5132999;27;20034;-73
2022/05/04 09:08:07;;;;;;;8.50;6.53;;;;;;;15.90;43.21;94949.19;5133074;27;20122;-74
2022/05/04 09:10:36;;;;;;;11.18;7.13;;;;;;;16.00;43.51;94949.06;5132898;27;20019;-74
2022/05/04 09:13:03;;;;;;;10.98;6.55;;;;;;;16.20;44.89;94952.28;5115927;27;20484;-73
2022/05/04 09:15:33;;;;;;;8.43;6.53;;;;;;;16.13;43.74;94938.13;5132755;27;20052;-73
2022/05/04 09:18:01;;;;;;;9.43;6.80;;;;;;;16.24;43.60;94943.94;5115821;27;20031;-72
2022/05/04 09:20:55;;;;;;;7.40;3.90;;;;;;;16.41;40.21;94942.19;5115704;27;20027;-73
2022/05/04 09:23:33;;;;;;;4.70;3.40;;;;;;;16.59;40.40;94943.88;5132932;27;20159;-73
2022/05/04 09:26:00;;;;;;;6.28;3.50;;;;;;;16.71;38.07;94938.13;5132565;27;20511;-73
2022/05/04 09:28:27;;;;;;;6.32;3.42;;;;;;;16.79;38.28;94934.75;5132435;27;20112;-73
2022/05/04 09:30:54;;;;;;;6.03;3.20;;;;;;;16.85;38.51;94933.28;5115555;27;20051;-73
2022/05/04 09:33:21;;;;;;;4.40;2.83;;;;;;;17.09;39.92;94929.84;5115610;27;20050;-72
2022/05/04 09:35:46;;;;;;;8.15;2.80;;;;;;;17.29;37.46;94927.72;5115090;27;20454;-73
2022/05/04 09:46:51;;;;;;;5.78;2.53;;;;;;;17.64;36.47;94918.63;5133380;27;20142;-73
2022/05/04 09:49:21;;;;;;;3.50;2.10;;;;;;;17.79;36.43;94916.16;5132082;27;20055;-74
2022/05/04 09:51:53;;;;;;;5.38;2.28;;;;;;;17.91;36.23;94911.34;5131979;27;20042;-73
2022/05/04 09:54:27;;;;;;;3.60;2.20;;;;;;;18.10;35.43;94905.69;5098316;27;20409;-73
2022/05/04 09:57:03;;;;;;;3.92;2.40;;;;;;;18.09;36.10;94907.50;5115165;27;20110;-73
2022/05/04 09:59:36;;;;;;;3.67;2.30;;;;;;;18.18;36.16;94897.78;5115404;27;20027;-73
2022/05/04 10:02:03;;;;;;;3.22;2.30;;;;;;;18.29;37.02;94905.28;5097105;27;20035;-73
2022/05/04 10:04:31;;;;;;;3.67;2.20;;;;;;;18.41;36.31;94895.19;5131778;27;20027;-73
2022/05/04 10:06:56;;;;;;;3.05;2.28;;;;;;;18.50;37.02;94909.13;5114954;27;20412;-73
2022/05/04 10:09:23;;;;;;;3.78;2.10;;;;;;;18.50;36.10;94898.59;5097467;27;20027;-73
2022/05/04 10:11:56;;;;;;;3.80;2.08;;;;;;;18.66;36.84;94902.94;5131612;27;20041;-73
2022/05/04 10:14:21;;;;;;;4.88;2.00;;;;;;;18.74;35.98;94890.56;5131692;27;20061;-73
2022/05/04 10:16:51;;;;;;;5.55;2.20;;;;;;;18.90;36.59;94888.81;5097271;27;20023;-74
2022/05/04 10:19:29;;;;;;;3.38;2.28;;;;;;;18.98;36.25;94894.03;5114615;27;20023;-73
2022/05/04 10:21:55;;;;;;;2.30;1.85;;;;;;;19.04;35.69;94889.88;5132694;27;20027;-73
2022/05/04 10:24:21;;;;;;;3.28;1.90;;;;;;;19.11;35.60;94882.88;5114385;27;20029;-73
2022/05/04 10:26:46;;;;;;;4.38;2.15;;;;;;;19.23;34.75;94878.03;5114019;27;20038;-73
2022/05/04 10:32:34;;;;;;;4.32;2.00;;;;;;;19.32;34.97;94876.94;5117694;27;20527;-73
2022/05/04 10:35:29;;;;;;;3.92;2.28;;;;;;;19.35;33.76;94873.94;5131269;27;20102;-73
2022/05/04 10:37:57;;;;;;;3.20;2.00;;;;;;;19.43;34.38;94856.25;5125001;27;20112;-73
2022/05/04 10:40:32;;;;;;;3.88;2.30;;;;;;;19.42;33.77;94857.25;5131102;27;20628;-73
2022/05/04 10:43:00;;;;;;;3.95;2.10;;;;;;;19.50;33.76;94853.72;5131316;27;20132;-73
2022/05/04 10:45:34;;;;;;;4.07;2.10;;;;;;;19.37;32.66;94853.53;5132296;27;20027;-73
2022/05/04 10:48:18;;;;;;;3.15;2.40;;;;;;;19.42;34.60;94861.72;5114175;27;20023;-73
2022/05/04 10:50:50;;;;;;;2.90;2.03;;;;;;;19.48;34.65;94853.09;5132239;27;20098;-73
2022/05/04 10:53:25;;;;;;;2.80;2.00;;;;;;;19.51;33.03;94855.34;5097061;27;20117;-73
2022/05/04 11:11:35;;;;;;;4.13;2.55;;;;;;;20.46;31.63;94836.06;5149677;27;20379;-72
2022/05/04 11:14:01;;;;;;;3.92;1.98;;;;;;;20.36;31.09;94842.66;5149918;27;20058;-72
2022/05/04 11:16:28;;;;;;;4.32;2.10;;;;;;;20.22;31.11;94833.75;5149635;27;20046;-72
2022/05/04 11:18:53;;;;;;;3.55;1.80;;;;;;;20.08;31.37;94809.06;5149530;27;20038;-72
2022/05/04 11:21:19;;;;;;;4.57;2.10;;;;;;;20.17;31.90;94829.06;5148377;27;20043;-72
2022/05/04 11:23:55;;;;;;;3.28;2.00;;;;;;;20.25;31.40;94836.03;5131165;27;20031;-72
2022/05/04 11:26:26;;;;;;;2.72;2.10;;;;;;;20.28;31.60;94825.09;5148407;27;20041;-72
2022/05/04 11:28:53;;;;;;;2.80;1.75;;;;;;;20.38;31.67;94825.63;5114870;27;20039;-72
2022/05/04 11:31:19;;;;;;;4.18;2.00;;;;;;;20.52;32.84;94824.75;5130996;27;20027;-73
2022/05/04 11:33:45;;;;;;;6.28;2.28;;;;;;;20.61;32.74;94827.31;5130892;27;20034;-72
2022/05/04 11:36:11;;;;;;;3.88;1.88;;;;;;;20.70;31.94;94823.56;5130922;27;20037;-72
2022/05/04 11:38:36;;;;;;;4.82;1.85;;;;;;;20.77;31.99;94821.78;5147972;27;20035;-73
2022/05/04 11:41:01;;;;;;;3.95;1.73;;;;;;;20.77;31.33;94826.25;5147838;27;20030;-72
2022/05/04 11:43:28;;;;;;;4.97;2.08;;;;;;;20.89;30.67;94828.16;5147959;27;20076;-72
2022/05/04 11:45:56;;;;;;;3.88;1.80;;;;;;;20.85;30.94;94816.38;5130789;27;20030;-72
2022/05/04 11:48:22;;;;;;;2.63;1.60;;;;;;;20.62;31.59;94826.31;5147938;27;20026;-72
2022/05/04 11:50:48;;;;;;;3.95;1.77;;;;;;;20.56;30.29;94816.50;5130796;27;20107;-72
2022/05/04 11:53:14;;;;;;;3.40;1.55;;;;;;;20.55;30.02;94814.88;5130574;27;20046;-72
2022/05/04 11:55:40;;;;;;;2.55;1.95;;;;;;;20.57;31.31;94808.41;5130689;27;20039;-72
2022/05/04 11:58:13;;;;;;;2.33;1.83;;;;;;;20.58;30.85;94788.09;5147614;27;20034;-73
2022/05/04 12:00:39;;;;;;;4.50;1.70;;;;;;;20.53;31.00;94797.41;5147783;27;20159;-73
2022/05/04 12:03:05;;;;;;;3.10;2.08;;;;;;;20.48;31.14;94815.59;5130172;27;20485;-72
2022/05/04 12:05:32;;;;;;;5.22;1.80;;;;;;;20.41;30.68;94811.25;5130465;27;20080;-72
2022/05/04 12:07:58;;;;;;;4.30;2.00;;;;;;;20.21;31.92;94817.13;5130358;27;20460;-72
2022/05/04 12:10:23;;;;;;;3.28;1.77;;;;;;;19.70;33.46;94821.59;5145635;27;20043;-72
2022/05/04 12:12:48;;;;;;;5.78;2.00;;;;;;;19.01;35.15;94816.53;5133289;27;20023;-72
2022/05/04 12:15:16;;;;;;;2.33;1.75;;;;;;;18.87;36.75;94813.69;5133602;27;20096;-72
2022/05/04 12:17:41;;;;;;;4.13;1.45;;;;;;;18.80;36.84;94807.47;5133548;27;20035;-72
2022/05/04 12:20:07;;;;;;;3.15;1.58;;;;;;;18.21;36.81;94813.31;5134828;27;20099;-72
2022/05/04 12:22:33;;;;;;;3.47;1.60;;;;;;;18.11;36.52;94810.09;5133372;27;20035;-72